sensor_id;sensor_type;location;lat;lon;timestamp;P1;durP1;ratioP1;P2;durP2;ratioP2
64487;SDS011;50864;45.050;39.014;2023-04-03T00:01:12;4.12;;;2.25;;
64487;SDS011;50864;45.050;39.014;2023-04-03T00:03:38;4.90;;;2.40;;
64487;SDS011;50864;45.050;39.014;2023-04-03T00:06:04;5.62;;;2.60;;
64487;SDS011;50864;45.050;39.014;2023-04-03T00:08:32;4.50;;;2.30;;
64487;SDS011;50864;45.050;39.014;2023-04-03T00:10:58;5.03;;;2.22;;
64487;SDS011;50864;45.050;39.014;2023-04-03T00:13:24;6.12;;;2.47;;
64487;SDS011;50864;45.050;39.014;2023-04-03T00:15:50;5.03;;;2.40;;
64487;SDS011;50864;45.050;39.014;2023-04-03T00:18:16;3.78;;;2.10;;
64487;SDS011;50864;45.050;39.014;2023-04-03T00:20:42;3.90;;;2.55;;
64487;SDS011;50864;45.050;39.014;2023-04-03T00:23:08;5.15;;;2.25;;
64487;SDS011;50864;45.050;39.014;2023-04-03T00:25:34;3.37;;;2.17;;
64487;SDS011;50864;45.050;39.014;2023-04-03T00:28:00;2.83;;;2.10;;
64487;SDS011;50864;45.050;39.014;2023-04-03T00:30:25;3.75;;;2.25;;
64487;SDS011;50864;45.050;39.014;2023-04-03T00:32:52;3.95;;;2.10;;
64487;SDS011;50864;45.050;39.014;2023-04-03T00:35:18;6.00;;;2.78;;
64487;SDS011;50864;45.050;39.014;2023-04-03T00:37:45;4.47;;;2.30;;
64487;SDS011;50864;45.050;39.014;2023-04-03T00:40:12;5.65;;;2.33;;
64487;SDS011;50864;45.050;39.014;2023-04-03T00:42:39;4.57;;;2.40;;
64487;SDS011;50864;45.050;39.014;2023-04-03T00:47:31;4.05;;;2.25;;
64487;SDS011;50864;45.050;39.014;2023-04-03T00:49:57;4.35;;;2.37;;
64487;SDS011;50864;45.050;39.014;2023-04-03T00:52:27;5.82;;;2.30;;
64487;SDS011;50864;45.050;39.014;2023-04-03T00:54:54;5.03;;;2.67;;
64487;SDS011;50864;45.050;39.014;2023-04-03T00:57:22;4.78;;;2.35;;
64487;SDS011;50864;45.050;39.014;2023-04-03T00:59:49;4.22;;;2.37;;
64487;SDS011;50864;45.050;39.014;2023-04-03T01:02:17;3.85;;;2.40;;
64487;SDS011;50864;45.050;39.014;2023-04-03T01:04:44;4.22;;;2.28;;
64487;SDS011;50864;45.050;39.014;2023-04-03T01:07:11;4.37;;;2.72;;
64487;SDS011;50864;45.050;39.014;2023-04-03T01:09:38;5.90;;;2.65;;
64487;SDS011;50864;45.050;39.014;2023-04-03T01:12:14;7.78;;;2.97;;
64487;SDS011;50864;45.050;39.014;2023-04-03T01:14:43;3.92;;;2.22;;
64487;SDS011;50864;45.050;39.014;2023-04-03T01:19:52;3.33;;;2.30;;
64487;SDS011;50864;45.050;39.014;2023-04-03T01:22:26;3.92;;;2.30;;
64487;SDS011;50864;45.050;39.014;2023-04-03T01:24:56;3.10;;;1.95;;
64487;SDS011;50864;45.050;39.014;2023-04-03T01:27:22;2.85;;;1.95;;
64487;SDS011;50864;45.050;39.014;2023-04-03T01:29:47;3.20;;;2.03;;
64487;SDS011;50864;45.050;39.014;2023-04-03T01:32:14;6.50;;;2.58;;
64487;SDS011;50864;45.050;39.014;2023-04-03T01:34:40;6.22;;;2.30;;
64487;SDS011;50864;45.050;39.014;2023-04-03T01:37:06;3.65;;;1.95;;
64487;SDS011;50864;45.050;39.014;2023-04-03T01:39:32;5.68;;;2.58;;
64487;SDS011;50864;45.050;39.014;2023-04-03T01:41:58;4.37;;;2.25;;
64487;SDS011;50864;45.050;39.014;2023-04-03T01:44:25;2.62;;;1.83;;
64487;SDS011;50864;45.050;39.014;2023-04-03T01:46:51;4.30;;;2.30;;
64487;SDS011;50864;45.050;39.014;2023-04-03T01:49:17;5.47;;;2.90;;
64487;SDS011;50864;45.050;39.014;2023-04-03T01:51:42;2.70;;;1.98;;
64487;SDS011;50864;45.050;39.014;2023-04-03T01:54:08;3.67;;;2.10;;
64487;SDS011;50864;45.050;39.014;2023-04-03T01:56:34;3.97;;;2.30;;
64487;SDS011;50864;45.050;39.014;2023-04-03T01:59:00;6.35;;;2.50;;
64487;SDS011;50864;45.050;39.014;2023-04-03T02:01:26;3.87;;;2.10;;
64487;SDS011;50864;45.050;39.014;2023-04-03T02:03:52;3.47;;;2.20;;
64487;SDS011;50864;45.050;39.014;2023-04-03T02:06:18;4.12;;;2.10;;
64487;SDS011;50864;45.050;39.014;2023-04-03T02:08:44;3.55;;;2.00;;
64487;SDS011;50864;45.050;39.014;2023-04-03T02:11:10;4.32;;;2.10;;
64487;SDS011;50864;45.050;39.014;2023-04-03T02:13:35;4.55;;;2.37;;
64487;SDS011;50864;45.050;39.014;2023-04-03T02:16:08;4.55;;;2.20;;
64487;SDS011;50864;45.050;39.014;2023-04-03T02:18:35;4.87;;;2.15;;
64487;SDS011;50864;45.050;39.014;2023-04-03T02:21:01;8.43;;;2.35;;
64487;SDS011;50864;45.050;39.014;2023-04-03T02:23:27;4.43;;;1.87;;
64487;SDS011;50864;45.050;39.014;2023-04-03T02:25:53;4.20;;;2.10;;
64487;SDS011;50864;45.050;39.014;2023-04-03T02:28:18;5.35;;;2.00;;
64487;SDS011;50864;45.050;39.014;2023-04-03T02:30:44;3.10;;;1.90;;
64487;SDS011;50864;45.050;39.014;2023-04-03T02:33:10;3.47;;;2.20;;
64487;SDS011;50864;45.050;39.014;2023-04-03T02:35:38;3.55;;;2.00;;
64487;SDS011;50864;45.050;39.014;2023-04-03T02:38:04;6.12;;;2.10;;
64487;SDS011;50864;45.050;39.014;2023-04-03T02:40:30;5.70;;;2.45;;
64487;SDS011;50864;45.050;39.014;2023-04-03T02:42:55;3.80;;;2.28;;
64487;SDS011;50864;45.050;39.014;2023-04-03T02:45:22;2.10;;;1.60;;
64487;SDS011;50864;45.050;39.014;2023-04-03T02:47:48;5.90;;;2.50;;
64487;SDS011;50864;45.050;39.014;2023-04-03T02:50:14;4.57;;;2.37;;
64487;SDS011;50864;45.050;39.014;2023-04-03T02:52:39;6.22;;;2.50;;
64487;SDS011;50864;45.050;39.014;2023-04-03T02:55:06;7.07;;;2.67;;
64487;SDS011;50864;45.050;39.014;2023-04-03T02:57:32;6.75;;;2.78;;
64487;SDS011;50864;45.050;39.014;2023-04-03T02:59:57;6.93;;;2.70;;
64487;SDS011;50864;45.050;39.014;2023-04-03T03:02:23;4.78;;;2.90;;
64487;SDS011;50864;45.050;39.014;2023-04-03T03:04:49;5.32;;;2.78;;
64487;SDS011;50864;45.050;39.014;2023-04-03T03:07:15;6.05;;;2.60;;
64487;SDS011;50864;45.050;39.014;2023-04-03T03:09:41;7.22;;;2.97;;
64487;SDS011;50864;45.050;39.014;2023-04-03T03:12:07;6.55;;;2.78;;
64487;SDS011;50864;45.050;39.014;2023-04-03T03:14:32;4.47;;;2.60;;
64487;SDS011;50864;45.050;39.014;2023-04-03T03:16:58;5.87;;;2.53;;
64487;SDS011;50864;45.050;39.014;2023-04-03T03:19:25;6.43;;;3.10;;
64487;SDS011;50864;45.050;39.014;2023-04-03T03:21:51;9.55;;;3.80;;
64487;SDS011;50864;45.050;39.014;2023-04-03T03:24:17;9.40;;;4.28;;
64487;SDS011;50864;45.050;39.014;2023-04-03T03:26:43;5.57;;;3.17;;
64487;SDS011;50864;45.050;39.014;2023-04-03T03:29:08;7.85;;;3.10;;
64487;SDS011;50864;45.050;39.014;2023-04-03T03:31:35;4.78;;;2.80;;
64487;SDS011;50864;45.050;39.014;2023-04-03T03:34:01;8.15;;;3.60;;
64487;SDS011;50864;45.050;39.014;2023-04-03T03:36:27;7.85;;;3.40;;
64487;SDS011;50864;45.050;39.014;2023-04-03T03:38:53;6.50;;;3.12;;
64487;SDS011;50864;45.050;39.014;2023-04-03T03:41:19;8.52;;;3.30;;
64487;SDS011;50864;45.050;39.014;2023-04-03T03:43:45;10.43;;;3.78;;
64487;SDS011;50864;45.050;39.014;2023-04-03T03:46:11;5.78;;;3.55;;
64487;SDS011;50864;45.050;39.014;2023-04-03T03:48:37;8.20;;;3.40;;
64487;SDS011;50864;45.050;39.014;2023-04-03T03:51:03;6.85;;;3.50;;
64487;SDS011;50864;45.050;39.014;2023-04-03T03:53:29;6.90;;;3.90;;
64487;SDS011;50864;45.050;39.014;2023-04-03T03:55:56;7.75;;;3.83;;
64487;SDS011;50864;45.050;39.014;2023-04-03T03:58:22;9.60;;;4.10;;
64487;SDS011;50864;45.050;39.014;2023-04-03T04:00:48;6.78;;;3.45;;
64487;SDS011;50864;45.050;39.014;2023-04-03T04:03:14;11.10;;;4.10;;
64487;SDS011;50864;45.050;39.014;2023-04-03T04:05:41;7.87;;;3.87;;
64487;SDS011;50864;45.050;39.014;2023-04-03T04:08:07;8.68;;;4.20;;
64487;SDS011;50864;45.050;39.014;2023-04-03T04:10:33;6.45;;;3.95;;
64487;SDS011;50864;45.050;39.014;2023-04-03T04:12:59;7.72;;;4.03;;
64487;SDS011;50864;45.050;39.014;2023-04-03T04:15:25;8.00;;;3.95;;
64487;SDS011;50864;45.050;39.014;2023-04-03T04:17:52;8.32;;;4.47;;
64487;SDS011;50864;45.050;39.014;2023-04-03T04:20:18;7.57;;;3.92;;
64487;SDS011;50864;45.050;39.014;2023-04-03T04:22:45;8.48;;;4.30;;
64487;SDS011;50864;45.050;39.014;2023-04-03T04:25:12;6.45;;;3.80;;
64487;SDS011;50864;45.050;39.014;2023-04-03T04:27:38;11.88;;;4.72;;
64487;SDS011;50864;45.050;39.014;2023-04-03T04:30:04;7.28;;;3.87;;
64487;SDS011;50864;45.050;39.014;2023-04-03T04:32:31;7.95;;;4.15;;
64487;SDS011;50864;45.050;39.014;2023-04-03T04:34:56;5.32;;;3.45;;
64487;SDS011;50864;45.050;39.014;2023-04-03T04:37:22;6.93;;;4.07;;
64487;SDS011;50864;45.050;39.014;2023-04-03T04:39:48;8.18;;;4.53;;
64487;SDS011;50864;45.050;39.014;2023-04-03T04:42:14;8.68;;;4.62;;
64487;SDS011;50864;45.050;39.014;2023-04-03T04:44:40;8.52;;;4.53;;
64487;SDS011;50864;45.050;39.014;2023-04-03T04:47:07;7.10;;;4.35;;
64487;SDS011;50864;45.050;39.014;2023-04-03T04:49:32;12.88;;;4.72;;
64487;SDS011;50864;45.050;39.014;2023-04-03T04:51:59;8.55;;;3.90;;
64487;SDS011;50864;45.050;39.014;2023-04-03T04:54:26;8.55;;;4.10;;
64487;SDS011;50864;45.050;39.014;2023-04-03T04:56:52;7.80;;;4.12;;
64487;SDS011;50864;45.050;39.014;2023-04-03T04:59:17;7.40;;;4.43;;
64487;SDS011;50864;45.050;39.014;2023-04-03T05:01:43;8.68;;;4.30;;
64487;SDS011;50864;45.050;39.014;2023-04-03T05:04:10;6.55;;;3.95;;
64487;SDS011;50864;45.050;39.014;2023-04-03T05:06:38;5.78;;;3.75;;
64487;SDS011;50864;45.050;39.014;2023-04-03T05:09:05;8.23;;;3.85;;
64487;SDS011;50864;45.050;39.014;2023-04-03T05:11:32;7.80;;;4.20;;
64487;SDS011;50864;45.050;39.014;2023-04-03T05:13:58;6.72;;;4.03;;
64487;SDS011;50864;45.050;39.014;2023-04-03T05:16:24;6.32;;;3.55;;
64487;SDS011;50864;45.050;39.014;2023-04-03T05:18:51;7.32;;;4.12;;
64487;SDS011;50864;45.050;39.014;2023-04-03T05:21:17;9.32;;;4.03;;
64487;SDS011;50864;45.050;39.014;2023-04-03T05:23:45;8.00;;;3.97;;
64487;SDS011;50864;45.050;39.014;2023-04-03T05:26:10;7.47;;;4.47;;
64487;SDS011;50864;45.050;39.014;2023-04-03T05:28:37;8.95;;;4.30;;
64487;SDS011;50864;45.050;39.014;2023-04-03T05:31:04;6.95;;;4.05;;
64487;SDS011;50864;45.050;39.014;2023-04-03T05:33:30;7.85;;;3.92;;
64487;SDS011;50864;45.050;39.014;2023-04-03T05:36:02;9.02;;;3.85;;
64487;SDS011;50864;45.050;39.014;2023-04-03T05:40:55;7.10;;;3.72;;
64487;SDS011;50864;45.050;39.014;2023-04-03T05:43:21;8.23;;;4.50;;
64487;SDS011;50864;45.050;39.014;2023-04-03T05:45:49;8.40;;;3.62;;
64487;SDS011;50864;45.050;39.014;2023-04-03T05:48:15;5.37;;;3.35;;
64487;SDS011;50864;45.050;39.014;2023-04-03T05:50:41;8.52;;;4.50;;
64487;SDS011;50864;45.050;39.014;2023-04-03T05:53:12;7.80;;;4.00;;
64487;SDS011;50864;45.050;39.014;2023-04-03T05:55:41;8.75;;;4.32;;
64487;SDS011;50864;45.050;39.014;2023-04-03T05:58:07;8.73;;;4.25;;
64487;SDS011;50864;45.050;39.014;2023-04-03T06:00:33;8.10;;;3.95;;
64487;SDS011;50864;45.050;39.014;2023-04-03T06:03:00;8.85;;;4.85;;
64487;SDS011;50864;45.050;39.014;2023-04-03T06:05:25;8.32;;;4.62;;
64487;SDS011;50864;45.050;39.014;2023-04-03T06:07:51;9.27;;;4.53;;
64487;SDS011;50864;45.050;39.014;2023-04-03T06:10:17;11.93;;;8.25;;
64487;SDS011;50864;45.050;39.014;2023-04-03T06:12:43;10.27;;;6.22;;
64487;SDS011;50864;45.050;39.014;2023-04-03T06:15:10;10.02;;;6.45;;
64487;SDS011;50864;45.050;39.014;2023-04-03T06:17:38;8.50;;;5.15;;
64487;SDS011;50864;45.050;39.014;2023-04-03T06:20:04;9.23;;;4.65;;
64487;SDS011;50864;45.050;39.014;2023-04-03T06:22:30;10.55;;;3.78;;
64487;SDS011;50864;45.050;39.014;2023-04-03T06:24:56;7.60;;;4.15;;
64487;SDS011;50864;45.050;39.014;2023-04-03T06:27:22;8.48;;;3.83;;
64487;SDS011;50864;45.050;39.014;2023-04-03T06:29:48;6.50;;;3.65;;
64487;SDS011;50864;45.050;39.014;2023-04-03T06:32:15;10.32;;;4.62;;
64487;SDS011;50864;45.050;39.014;2023-04-03T06:34:41;6.37;;;3.78;;
64487;SDS011;50864;45.050;39.014;2023-04-03T06:37:10;7.60;;;4.20;;
64487;SDS011;50864;45.050;39.014;2023-04-03T06:39:36;9.30;;;4.60;;
64487;SDS011;50864;45.050;39.014;2023-04-03T06:42:02;9.55;;;5.00;;
64487;SDS011;50864;45.050;39.014;2023-04-03T06:44:28;8.50;;;4.80;;
64487;SDS011;50864;45.050;39.014;2023-04-03T06:46:54;6.90;;;4.78;;
64487;SDS011;50864;45.050;39.014;2023-04-03T06:49:20;8.85;;;4.53;;
64487;SDS011;50864;45.050;39.014;2023-04-03T06:51:46;7.70;;;4.62;;
64487;SDS011;50864;45.050;39.014;2023-04-03T06:54:12;8.07;;;3.90;;
64487;SDS011;50864;45.050;39.014;2023-04-03T06:56:38;7.50;;;4.45;;
64487;SDS011;50864;45.050;39.014;2023-04-03T06:59:04;7.93;;;3.35;;
64487;SDS011;50864;45.050;39.014;2023-04-03T07:01:30;6.65;;;3.85;;
64487;SDS011;50864;45.050;39.014;2023-04-03T07:03:56;7.50;;;4.25;;
64487;SDS011;50864;45.050;39.014;2023-04-03T07:06:22;5.30;;;3.47;;
64487;SDS011;50864;45.050;39.014;2023-04-03T07:08:48;5.82;;;3.90;;
64487;SDS011;50864;45.050;39.014;2023-04-03T07:11:14;7.18;;;3.85;;
64487;SDS011;50864;45.050;39.014;2023-04-03T07:13:40;9.20;;;4.37;;
64487;SDS011;50864;45.050;39.014;2023-04-03T07:16:07;7.25;;;3.95;;
64487;SDS011;50864;45.050;39.014;2023-04-03T07:18:34;7.37;;;4.18;;
64487;SDS011;50864;45.050;39.014;2023-04-03T07:21:00;6.35;;;3.67;;
64487;SDS011;50864;45.050;39.014;2023-04-03T07:23:27;8.00;;;3.95;;
64487;SDS011;50864;45.050;39.014;2023-04-03T07:25:53;6.03;;;3.72;;
64487;SDS011;50864;45.050;39.014;2023-04-03T07:28:20;6.95;;;4.12;;
64487;SDS011;50864;45.050;39.014;2023-04-03T07:30:46;6.93;;;3.60;;
64487;SDS011;50864;45.050;39.014;2023-04-03T07:33:13;7.35;;;4.15;;
64487;SDS011;50864;45.050;39.014;2023-04-03T07:35:39;8.30;;;4.30;;
64487;SDS011;50864;45.050;39.014;2023-04-03T07:38:05;6.70;;;3.45;;
64487;SDS011;50864;45.050;39.014;2023-04-03T07:40:31;5.65;;;3.62;;
64487;SDS011;50864;45.050;39.014;2023-04-03T07:42:57;6.30;;;3.55;;
64487;SDS011;50864;45.050;39.014;2023-04-03T07:45:23;8.35;;;3.70;;
64487;SDS011;50864;45.050;39.014;2023-04-03T07:47:49;8.38;;;4.68;;
64487;SDS011;50864;45.050;39.014;2023-04-03T07:50:15;10.43;;;5.70;;
64487;SDS011;50864;45.050;39.014;2023-04-03T07:52:41;9.70;;;5.28;;
64487;SDS011;50864;45.050;39.014;2023-04-03T07:55:07;13.73;;;8.30;;
64487;SDS011;50864;45.050;39.014;2023-04-03T07:57:32;8.43;;;5.20;;
64487;SDS011;50864;45.050;39.014;2023-04-03T07:59:58;8.15;;;4.65;;
64487;SDS011;50864;45.050;39.014;2023-04-03T08:02:24;6.62;;;3.58;;
64487;SDS011;50864;45.050;39.014;2023-04-03T08:04:50;5.00;;;3.25;;
64487;SDS011;50864;45.050;39.014;2023-04-03T08:07:16;5.93;;;3.50;;
64487;SDS011;50864;45.050;39.014;2023-04-03T08:09:42;6.47;;;3.70;;
64487;SDS011;50864;45.050;39.014;2023-04-03T08:12:09;6.85;;;3.92;;
64487;SDS011;50864;45.050;39.014;2023-04-03T08:14:37;8.48;;;4.28;;
64487;SDS011;50864;45.050;39.014;2023-04-03T08:17:03;7.87;;;4.70;;
64487;SDS011;50864;45.050;39.014;2023-04-03T08:19:31;5.43;;;3.60;;
64487;SDS011;50864;45.050;39.014;2023-04-03T08:21:57;6.93;;;4.55;;
64487;SDS011;50864;45.050;39.014;2023-04-03T08:24:24;5.80;;;3.55;;
64487;SDS011;50864;45.050;39.014;2023-04-03T08:26:50;6.68;;;3.78;;
64487;SDS011;50864;45.050;39.014;2023-04-03T08:29:16;7.00;;;4.68;;
64487;SDS011;50864;45.050;39.014;2023-04-03T08:31:42;6.50;;;4.22;;
64487;SDS011;50864;45.050;39.014;2023-04-03T08:34:08;6.32;;;3.70;;
64487;SDS011;50864;45.050;39.014;2023-04-03T08:36:34;5.50;;;3.40;;
64487;SDS011;50864;45.050;39.014;2023-04-03T08:39:00;7.40;;;4.15;;
64487;SDS011;50864;45.050;39.014;2023-04-03T08:41:37;5.87;;;3.47;;
64487;SDS011;50864;45.050;39.014;2023-04-03T08:44:15;6.30;;;4.32;;
64487;SDS011;50864;45.050;39.014;2023-04-03T08:49:45;6.22;;;3.17;;
64487;SDS011;50864;45.050;39.014;2023-04-03T08:52:28;6.15;;;3.83;;
64487;SDS011;50864;45.050;39.014;2023-04-03T08:54:57;4.07;;;3.03;;
64487;SDS011;50864;45.050;39.014;2023-04-03T08:57:35;4.62;;;3.03;;
64487;SDS011;50864;45.050;39.014;2023-04-03T09:02:41;5.72;;;3.17;;
64487;SDS011;50864;45.050;39.014;2023-04-03T09:08:07;6.15;;;3.10;;
64487;SDS011;50864;45.050;39.014;2023-04-03T09:10:37;5.40;;;3.00;;
64487;SDS011;50864;45.050;39.014;2023-04-03T09:13:13;5.72;;;3.35;;
64487;SDS011;50864;45.050;39.014;2023-04-03T09:15:41;5.03;;;3.25;;
64487;SDS011;50864;45.050;39.014;2023-04-03T09:18:13;5.07;;;2.92;;
64487;SDS011;50864;45.050;39.014;2023-04-03T09:25:48;4.68;;;3.12;;
64487;SDS011;50864;45.050;39.014;2023-04-03T09:28:15;5.20;;;2.78;;
64487;SDS011;50864;45.050;39.014;2023-04-03T09:30:41;7.25;;;4.00;;
64487;SDS011;50864;45.050;39.014;2023-04-03T09:33:07;5.85;;;3.10;;
64487;SDS011;50864;45.050;39.014;2023-04-03T09:35:35;3.95;;;2.65;;
64487;SDS011;50864;45.050;39.014;2023-04-03T09:40:35;3.75;;;2.70;;
64487;SDS011;50864;45.050;39.014;2023-04-03T09:43:22;5.45;;;2.97;;
64487;SDS011;50864;45.050;39.014;2023-04-03T09:45:49;4.20;;;2.70;;
64487;SDS011;50864;45.050;39.014;2023-04-03T09:48:17;7.10;;;4.85;;
64487;SDS011;50864;45.050;39.014;2023-04-03T09:50:53;6.85;;;3.35;;
64487;SDS011;50864;45.050;39.014;2023-04-03T09:55:53;5.60;;;2.83;;
64487;SDS011;50864;45.050;39.014;2023-04-03T09:58:26;3.87;;;2.55;;
64487;SDS011;50864;45.050;39.014;2023-04-03T10:00:57;4.22;;;2.70;;
64487;SDS011;50864;45.050;39.014;2023-04-03T10:03:28;3.35;;;2.33;;
64487;SDS011;50864;45.050;39.014;2023-04-03T10:05:54;3.00;;;2.25;;
64487;SDS011;50864;45.050;39.014;2023-04-03T10:08:23;3.17;;;2.03;;
64487;SDS011;50864;45.050;39.014;2023-04-03T10:11:05;5.07;;;2.65;;
64487;SDS011;50864;45.050;39.014;2023-04-03T10:13:31;5.18;;;2.58;;
64487;SDS011;50864;45.050;39.014;2023-04-03T10:16:03;3.87;;;2.50;;
64487;SDS011;50864;45.050;39.014;2023-04-03T10:18:44;3.37;;;2.10;;
64487;SDS011;50864;45.050;39.014;2023-04-03T10:21:55;3.28;;;2.22;;
64487;SDS011;50864;45.050;39.014;2023-04-03T10:29:55;5.47;;;2.60;;
64487;SDS011;50864;45.050;39.014;2023-04-03T10:34:57;2.85;;;2.00;;
64487;SDS011;50864;45.050;39.014;2023-04-03T10:37:28;3.17;;;2.20;;
64487;SDS011;50864;45.050;39.014;2023-04-03T10:42:46;3.65;;;2.45;;
64487;SDS011;50864;45.050;39.014;2023-04-03T10:45:30;4.25;;;2.37;;
64487;SDS011;50864;45.050;39.014;2023-04-03T10:48:07;3.47;;;2.80;;
64487;SDS011;50864;45.050;39.014;2023-04-03T10:56:13;3.97;;;2.35;;
64487;SDS011;50864;45.050;39.014;2023-04-03T10:58:43;8.30;;;3.65;;
64487;SDS011;50864;45.050;39.014;2023-04-03T11:01:13;4.78;;;3.25;;
64487;SDS011;50864;45.050;39.014;2023-04-03T11:03:40;5.32;;;2.45;;
64487;SDS011;50864;45.050;39.014;2023-04-03T11:06:09;5.35;;;2.50;;
64487;SDS011;50864;45.050;39.014;2023-04-03T11:11:16;4.18;;;2.35;;
64487;SDS011;50864;45.050;39.014;2023-04-03T11:22:20;4.50;;;2.35;;
64487;SDS011;50864;45.050;39.014;2023-04-03T11:24:51;5.15;;;2.35;;
64487;SDS011;50864;45.050;39.014;2023-04-03T11:27:21;3.05;;;2.30;;
64487;SDS011;50864;45.050;39.014;2023-04-03T11:29:53;6.60;;;2.40;;
64487;SDS011;50864;45.050;39.014;2023-04-03T11:35:04;4.25;;;2.50;;
64487;SDS011;50864;45.050;39.014;2023-04-03T11:37:35;4.43;;;2.65;;
64487;SDS011;50864;45.050;39.014;2023-04-03T11:47:58;3.33;;;2.28;;
64487;SDS011;50864;45.050;39.014;2023-04-03T11:50:40;3.75;;;2.30;;
64487;SDS011;50864;45.050;39.014;2023-04-03T12:13:31;2.72;;;1.90;;
64487;SDS011;50864;45.050;39.014;2023-04-03T12:15:58;2.83;;;1.75;;
64487;SDS011;50864;45.050;39.014;2023-04-03T12:23:58;2.87;;;1.90;;
64487;SDS011;50864;45.050;39.014;2023-04-03T12:26:27;1.98;;;1.70;;
64487;SDS011;50864;45.050;39.014;2023-04-03T12:28:53;2.08;;;1.85;;
64487;SDS011;50864;45.050;39.014;2023-04-03T12:31:22;3.12;;;2.03;;
64487;SDS011;50864;45.050;39.014;2023-04-03T12:34:09;2.12;;;1.90;;
64487;SDS011;50864;45.050;39.014;2023-04-03T12:36:46;4.22;;;1.92;;
64487;SDS011;50864;45.050;39.014;2023-04-03T12:39:39;4.32;;;2.00;;
64487;SDS011;50864;45.050;39.014;2023-04-03T12:42:45;3.58;;;2.10;;
64487;SDS011;50864;45.050;39.014;2023-04-03T12:47:25;4.10;;;2.15;;
64487;SDS011;50864;45.050;39.014;2023-04-03T12:49:53;4.00;;;2.10;;
64487;SDS011;50864;45.050;39.014;2023-04-03T12:54:50;4.53;;;2.30;;
64487;SDS011;50864;45.050;39.014;2023-04-03T12:59:48;4.03;;;2.37;;
64487;SDS011;50864;45.050;39.014;2023-04-03T13:04:59;4.32;;;2.30;;
64487;SDS011;50864;45.050;39.014;2023-04-03T13:07:32;3.50;;;1.92;;
64487;SDS011;50864;45.050;39.014;2023-04-03T13:10:00;3.75;;;2.30;;
64487;SDS011;50864;45.050;39.014;2023-04-03T13:12:26;3.85;;;2.30;;
64487;SDS011;50864;45.050;39.014;2023-04-03T13:14:54;5.07;;;2.28;;
64487;SDS011;50864;45.050;39.014;2023-04-03T13:17:24;3.55;;;2.20;;
64487;SDS011;50864;45.050;39.014;2023-04-03T13:20:09;4.70;;;2.20;;
64487;SDS011;50864;45.050;39.014;2023-04-03T13:22:37;3.20;;;2.12;;
64487;SDS011;50864;45.050;39.014;2023-04-03T13:25:09;6.75;;;2.30;;
64487;SDS011;50864;45.050;39.014;2023-04-03T13:27:36;3.92;;;2.60;;
64487;SDS011;50864;45.050;39.014;2023-04-03T13:30:04;5.12;;;2.47;;
64487;SDS011;50864;45.050;39.014;2023-04-03T13:32:31;2.92;;;2.03;;
64487;SDS011;50864;45.050;39.014;2023-04-03T13:34:57;3.40;;;2.10;;
64487;SDS011;50864;45.050;39.014;2023-04-03T13:43:00;4.50;;;1.87;;
64487;SDS011;50864;45.050;39.014;2023-04-03T13:45:27;3.62;;;2.12;;
64487;SDS011;50864;45.050;39.014;2023-04-03T13:48:08;3.90;;;2.17;;
64487;SDS011;50864;45.050;39.014;2023-04-03T13:50:48;4.53;;;2.30;;
64487;SDS011;50864;45.050;39.014;2023-04-03T13:53:15;2.92;;;2.15;;
64487;SDS011;50864;45.050;39.014;2023-04-03T13:58:27;3.28;;;2.00;;
64487;SDS011;50864;45.050;39.014;2023-04-03T14:06:01;3.95;;;2.22;;
64487;SDS011;50864;45.050;39.014;2023-04-03T14:08:26;3.78;;;1.90;;
64487;SDS011;50864;45.050;39.014;2023-04-03T14:10:53;3.50;;;2.05;;
64487;SDS011;50864;45.050;39.014;2023-04-03T14:13:20;3.45;;;2.00;;
64487;SDS011;50864;45.050;39.014;2023-04-03T14:15:46;4.65;;;2.20;;
64487;SDS011;50864;45.050;39.014;2023-04-03T14:18:15;4.15;;;2.08;;
64487;SDS011;50864;45.050;39.014;2023-04-03T14:20:41;3.22;;;2.00;;
64487;SDS011;50864;45.050;39.014;2023-04-03T14:23:07;4.87;;;2.40;;
64487;SDS011;50864;45.050;39.014;2023-04-03T14:25:33;4.87;;;2.37;;
64487;SDS011;50864;45.050;39.014;2023-04-03T14:27:59;3.30;;;2.10;;
64487;SDS011;50864;45.050;39.014;2023-04-03T14:30:27;4.10;;;2.35;;
64487;SDS011;50864;45.050;39.014;2023-04-03T14:32:54;2.35;;;2.00;;
64487;SDS011;50864;45.050;39.014;2023-04-03T14:35:19;4.03;;;2.10;;
64487;SDS011;50864;45.050;39.014;2023-04-03T14:37:45;3.97;;;2.67;;
64487;SDS011;50864;45.050;39.014;2023-04-03T14:40:13;4.57;;;2.15;;
64487;SDS011;50864;45.050;39.014;2023-04-03T14:42:39;2.83;;;2.15;;
64487;SDS011;50864;45.050;39.014;2023-04-03T14:45:06;3.70;;;2.10;;
64487;SDS011;50864;45.050;39.014;2023-04-03T14:47:32;4.15;;;2.42;;
64487;SDS011;50864;45.050;39.014;2023-04-03T14:49:59;2.83;;;2.10;;
64487;SDS011;50864;45.050;39.014;2023-04-03T14:52:27;6.00;;;2.70;;
64487;SDS011;50864;45.050;39.014;2023-04-03T14:54:53;3.97;;;2.45;;
64487;SDS011;50864;45.050;39.014;2023-04-03T14:57:20;3.12;;;2.00;;
64487;SDS011;50864;45.050;39.014;2023-04-03T14:59:47;3.58;;;2.17;;
64487;SDS011;50864;45.050;39.014;2023-04-03T15:04:40;4.85;;;2.30;;
64487;SDS011;50864;45.050;39.014;2023-04-03T15:07:07;4.78;;;2.40;;
64487;SDS011;50864;45.050;39.014;2023-04-03T15:09:34;5.53;;;2.40;;
64487;SDS011;50864;45.050;39.014;2023-04-03T15:12:01;4.32;;;2.87;;
64487;SDS011;50864;45.050;39.014;2023-04-03T15:14:27;7.15;;;2.72;;
64487;SDS011;50864;45.050;39.014;2023-04-03T15:16:53;6.03;;;2.90;;
64487;SDS011;50864;45.050;39.014;2023-04-03T15:19:18;4.15;;;2.60;;
64487;SDS011;50864;45.050;39.014;2023-04-03T15:21:44;5.97;;;3.17;;
64487;SDS011;50864;45.050;39.014;2023-04-03T15:24:10;4.35;;;2.50;;
64487;SDS011;50864;45.050;39.014;2023-04-03T15:26:36;5.50;;;2.90;;
64487;SDS011;50864;45.050;39.014;2023-04-03T15:29:03;4.95;;;3.05;;
64487;SDS011;50864;45.050;39.014;2023-04-03T15:31:29;5.65;;;3.00;;
64487;SDS011;50864;45.050;39.014;2023-04-03T15:33:54;4.50;;;2.60;;
64487;SDS011;50864;45.050;39.014;2023-04-03T15:36:20;4.93;;;2.92;;
64487;SDS011;50864;45.050;39.014;2023-04-03T15:38:46;5.22;;;2.92;;
64487;SDS011;50864;45.050;39.014;2023-04-03T15:41:12;4.43;;;2.60;;
64487;SDS011;50864;45.050;39.014;2023-04-03T15:43:38;5.65;;;2.97;;
64487;SDS011;50864;45.050;39.014;2023-04-03T15:46:04;6.70;;;3.15;;
64487;SDS011;50864;45.050;39.014;2023-04-03T15:48:30;9.05;;;4.25;;
64487;SDS011;50864;45.050;39.014;2023-04-03T15:50:55;5.87;;;2.97;;
64487;SDS011;50864;45.050;39.014;2023-04-03T15:53:21;5.82;;;3.20;;
64487;SDS011;50864;45.050;39.014;2023-04-03T15:55:47;7.75;;;3.45;;
64487;SDS011;50864;45.050;39.014;2023-04-03T15:58:13;6.70;;;3.37;;
64487;SDS011;50864;45.050;39.014;2023-04-03T16:00:39;6.07;;;3.20;;
64487;SDS011;50864;45.050;39.014;2023-04-03T16:03:09;7.68;;;3.80;;
64487;SDS011;50864;45.050;39.014;2023-04-03T16:05:36;7.28;;;2.70;;
64487;SDS011;50864;45.050;39.014;2023-04-03T16:08:02;7.85;;;3.00;;
64487;SDS011;50864;45.050;39.014;2023-04-03T16:10:29;6.40;;;3.25;;
64487;SDS011;50864;45.050;39.014;2023-04-03T16:12:54;4.68;;;2.90;;
64487;SDS011;50864;45.050;39.014;2023-04-03T16:15:20;7.00;;;3.17;;
64487;SDS011;50864;45.050;39.014;2023-04-03T16:17:46;6.80;;;3.20;;
64487;SDS011;50864;45.050;39.014;2023-04-03T16:20:14;6.93;;;3.92;;
64487;SDS011;50864;45.050;39.014;2023-04-03T16:22:40;4.07;;;2.70;;
64487;SDS011;50864;45.050;39.014;2023-04-03T16:25:07;6.57;;;3.00;;
64487;SDS011;50864;45.050;39.014;2023-04-03T16:27:33;8.75;;;3.20;;
64487;SDS011;50864;45.050;39.014;2023-04-03T16:29:59;10.48;;;3.70;;
64487;SDS011;50864;45.050;39.014;2023-04-03T16:32:25;6.95;;;3.35;;